createdAt,value
2023-04-25T00:00:27.198Z,95901.81
2023-04-25T00:02:57.013Z,95902.97
2023-04-25T00:05:25.250Z,95919.31
2023-04-25T00:07:53.881Z,95927.91
2023-04-25T00:10:21.776Z,95921.66
2023-04-25T00:12:49.790Z,95924.06
2023-04-25T00:15:18.957Z,95921.16
2023-04-25T00:17:47.637Z,95906.44
2023-04-25T00:20:15.642Z,95901.00
2023-04-25T00:22:43.515Z,95916.78
2023-04-25T00:25:11.280Z,95901.72
2023-04-25T00:27:40.099Z,95911.72
2023-04-25T00:30:08.986Z,95917.03
2023-04-25T00:32:38.267Z,95912.19
2023-04-25T00:35:06.971Z,95908.16
2023-04-25T00:37:34.835Z,95900.63
2023-04-25T00:40:03.350Z,95902.84
2023-04-25T00:42:31.771Z,95911.50
2023-04-25T00:45:00.610Z,95903.84
2023-04-25T00:47:28.611Z,95913.09
2023-04-25T00:49:57.741Z,95912.28
2023-04-25T00:52:25.675Z,95916.09
2023-04-25T00:54:53.461Z,95919.66
2023-04-25T00:57:21.271Z,95913.88
2023-04-25T00:59:49.740Z,95922.91
2023-04-25T01:02:17.603Z,95920.25
2023-04-25T01:04:45.449Z,95925.44
2023-04-25T01:07:14.691Z,95917.56
2023-04-25T01:09:43.121Z,95921.66
2023-04-25T01:12:11.204Z,95918.19
2023-04-25T01:14:39.040Z,95914.47
2023-04-25T01:17:08.679Z,95921.72
2023-04-25T01:19:37.147Z,95919.53
2023-04-25T01:22:06.650Z,95900.09
2023-04-25T01:24:35.245Z,95897.03
2023-04-25T01:27:03.972Z,95898.91
2023-04-25T01:29:32.871Z,95906.34
2023-04-25T01:32:01.756Z,95912.78
2023-04-25T01:34:29.529Z,95904.94
2023-04-25T01:36:57.351Z,95904.81
2023-04-25T01:39:26.965Z,95911.31
2023-04-25T01:41:55.733Z,95912.69
2023-04-25T01:44:25.001Z,95901.72
2023-04-25T01:46:52.990Z,95899.50
2023-04-25T01:49:21.122Z,95896.81
2023-04-25T01:51:48.818Z,95899.97
2023-04-25T01:54:16.666Z,95892.88
2023-04-25T01:56:46.019Z,95888.72
2023-04-25T01:59:13.877Z,95898.19
2023-04-25T02:01:41.650Z,95889.38
2023-04-25T02:04:09.690Z,95893.53
2023-04-25T02:06:37.573Z,95887.69
2023-04-25T02:09:05.454Z,95885.34
2023-04-25T02:11:33.263Z,95893.09
2023-04-25T02:14:02.311Z,95892.28
2023-04-25T02:16:31.785Z,95888.72
2023-04-25T02:19:00.071Z,95893.22
2023-04-25T02:21:27.881Z,95893.34
2023-04-25T02:23:55.686Z,95890.84
2023-04-25T02:26:24.775Z,95884.94
2023-04-25T02:28:53.056Z,95889.94
2023-04-25T02:31:22.382Z,95883.28
2023-04-25T02:33:51.028Z,95878.31
2023-04-25T02:36:18.860Z,95879.34
2023-04-25T02:38:46.653Z,95885.53
2023-04-25T02:41:14.428Z,95882.00
2023-04-25T02:43:42.174Z,95881.66
2023-04-25T02:46:09.929Z,95877.19
2023-04-25T02:48:38.994Z,95878.38
2023-04-25T02:51:06.892Z,95875.78
2023-04-25T02:53:34.795Z,95871.53
2023-04-25T02:56:02.858Z,95863.41
2023-04-25T02:58:30.564Z,95864.31
2023-04-25T03:00:58.419Z,95849.72
2023-04-25T03:03:26.461Z,95864.00
2023-04-25T03:05:55.672Z,95855.31
2023-04-25T03:08:23.819Z,95840.44
2023-04-25T03:10:53.083Z,95856.88
2023-04-25T03:13:20.846Z,95860.69
2023-04-25T03:15:48.549Z,95865.69
2023-04-25T03:18:16.403Z,95851.00
2023-04-25T03:20:44.718Z,95846.06
2023-04-25T03:23:13.831Z,95868.38
2023-04-25T03:25:41.610Z,95873.28
2023-04-25T03:28:09.545Z,95858.09
2023-04-25T03:30:37.482Z,95857.72
2023-04-25T03:33:05.307Z,95859.19
2023-04-25T03:35:33.169Z,95856.75
2023-04-25T03:38:01.052Z,95850.13
2023-04-25T03:40:30.404Z,95856.25
2023-04-25T03:42:58.549Z,95845.41
2023-04-25T03:45:26.265Z,95846.22
2023-04-25T03:47:54.136Z,95821.16
2023-04-25T03:50:22.663Z,95849.25
2023-04-25T03:52:50.897Z,95842.00
2023-04-25T03:55:18.758Z,95815.31
2023-04-25T03:57:47.853Z,95838.53
2023-04-25T04:00:16.543Z,95846.94
2023-04-25T04:02:45.601Z,95839.41
2023-04-25T04:05:14.004Z,95847.97
2023-04-25T04:07:43.644Z,95843.47
2023-04-25T04:10:12.749Z,95851.59
2023-04-25T04:12:40.963Z,95839.56
2023-04-25T04:15:11.223Z,95845.53
2023-04-25T04:17:39.028Z,95846.50
2023-04-25T04:20:08.778Z,95848.97
2023-04-25T04:22:36.639Z,95846.78
2023-04-25T04:25:06.752Z,95853.13
2023-04-25T04:27:35.403Z,95839.25
2023-04-25T04:30:04.340Z,95846.91
2023-04-25T04:32:34.522Z,95840.41
2023-04-25T04:35:02.358Z,95838.81
2023-04-25T04:37:30.159Z,95839.69
2023-04-25T04:39:58.175Z,95841.31
2023-04-25T04:42:26.318Z,95836.00
2023-04-25T04:44:55.934Z,95816.88
2023-04-25T04:47:24.716Z,95839.56
2023-04-25T04:49:53.903Z,95824.97
2023-04-25T04:52:21.638Z,95830.53
2023-04-25T04:54:49.449Z,95802.59
2023-04-25T04:57:17.764Z,95833.06
2023-04-25T04:59:45.594Z,95816.56
2023-04-25T05:02:13.473Z,95826.09
2023-04-25T05:04:41.449Z,95824.16
2023-04-25T05:07:10.992Z,95833.50
2023-04-25T05:09:38.801Z,95829.06
2023-04-25T05:12:07.094Z,95831.13
2023-04-25T05:14:35.026Z,95833.31
2023-04-25T05:17:05.714Z,95799.78
2023-04-25T05:19:34.321Z,95803.38
2023-04-25T05:22:02.208Z,95822.91
2023-04-25T05:24:31.652Z,95822.56
2023-04-25T05:26:59.630Z,95826.97
2023-04-25T05:29:27.318Z,95807.97
2023-04-25T05:31:55.204Z,95828.03
2023-04-25T05:34:23.011Z,95828.25
2023-04-25T05:36:50.919Z,95829.41
2023-04-25T05:39:18.992Z,95835.66
2023-04-25T05:41:48.106Z,95824.06
2023-04-25T05:44:17.147Z,95823.88
2023-04-25T05:46:45.419Z,95822.91
2023-04-25T05:49:13.330Z,95807.56
2023-04-25T05:51:43.597Z,95813.19
2023-04-25T05:54:11.784Z,95826.50
2023-04-25T05:56:39.710Z,95809.81
2023-04-25T05:59:08.878Z,95815.25
2023-04-25T06:01:36.999Z,95815.56
2023-04-25T06:04:05.496Z,95823.03
2023-04-25T06:06:33.802Z,95819.47
2023-04-25T06:09:01.965Z,95823.50
2023-04-25T06:11:29.876Z,95822.19
2023-04-25T06:13:58.114Z,95829.28
2023-04-25T06:16:27.813Z,95831.19
2023-04-25T06:18:56.295Z,95837.72
2023-04-25T06:21:24.325Z,95846.56
2023-04-25T06:23:52.376Z,95850.69
2023-04-25T06:26:20.630Z,95849.94
2023-04-25T06:28:48.462Z,95871.22
2023-04-25T06:31:16.332Z,95880.59
2023-04-25T06:33:45.530Z,95883.00
2023-04-25T06:36:13.325Z,95880.47
2023-04-25T06:38:41.529Z,95899.19
2023-04-25T06:41:09.291Z,95891.06
2023-04-25T06:43:37.048Z,95907.78
2023-04-25T06:46:04.815Z,95898.47
2023-04-25T06:48:32.512Z,95889.31
2023-04-25T06:51:01.599Z,95916.44
2023-04-25T06:53:29.591Z,95909.84
2023-04-25T06:55:57.412Z,95901.97
2023-04-25T06:58:25.233Z,95893.91
2023-04-25T07:00:53.218Z,95891.25
2023-04-25T07:03:23.329Z,95887.84
2023-04-25T07:05:51.655Z,95891.38
2023-04-25T07:08:21.680Z,95871.31
2023-04-25T07:10:50.207Z,95896.88
2023-04-25T07:13:18.046Z,95890.53
2023-04-25T07:15:46.074Z,95895.44
2023-04-25T07:18:13.840Z,95873.41
2023-04-25T07:20:41.816Z,95888.06
2023-04-25T07:23:09.653Z,95878.19
2023-04-25T07:25:38.861Z,95879.75
2023-04-25T07:28:06.749Z,95902.13
2023-04-25T07:30:40.476Z,95902.31
2023-04-25T07:33:08.242Z,95904.75
2023-04-25T07:35:36.204Z,95901.06
2023-04-25T07:38:04.386Z,95898.91
2023-04-25T07:40:32.324Z,95907.47
2023-04-25T07:43:01.676Z,95905.69
2023-04-25T07:45:29.588Z,95927.63
2023-04-25T07:47:57.523Z,95921.06
2023-04-25T07:50:25.928Z,95912.66
2023-04-25T07:52:53.706Z,95926.34
2023-04-25T07:55:21.456Z,95929.84
2023-04-25T07:57:49.159Z,95922.16
2023-04-25T08:00:19.460Z,95927.63
2023-04-25T08:02:47.293Z,95929.91
2023-04-25T08:05:16.622Z,95933.91
2023-04-25T08:07:46.143Z,95917.81
2023-04-25T08:10:13.914Z,95928.72
2023-04-25T08:12:41.827Z,95937.31
2023-04-25T08:15:10.789Z,95941.34
2023-04-25T08:17:39.978Z,95935.47
2023-04-25T08:20:09.902Z,95936.91
2023-04-25T08:22:37.947Z,95934.41
2023-04-25T08:25:06.580Z,95907.69
2023-04-25T08:27:34.315Z,95942.25
2023-04-25T08:30:02.948Z,95947.69
2023-04-25T08:32:31.283Z,95948.66
2023-04-25T08:35:00.581Z,95956.31
2023-04-25T08:37:28.391Z,95963.25
2023-04-25T08:39:59.368Z,95949.34
2023-04-25T08:42:29.931Z,95960.19
2023-04-25T08:44:58.325Z,95953.16
2023-04-25T08:47:28.516Z,95963.63
2023-04-25T08:49:56.694Z,95961.75
2023-04-25T08:52:26.262Z,95970.03
2023-04-25T08:54:56.476Z,95954.84
2023-04-25T08:57:25.450Z,95989.47
2023-04-25T08:59:54.862Z,95992.69
2023-04-25T09:02:22.758Z,96002.03
2023-04-25T09:04:51.713Z,95996.34
2023-04-25T09:07:22.397Z,96004.50
2023-04-25T09:09:51.554Z,96011.63
2023-04-25T09:12:20.561Z,96001.19
2023-04-25T09:15:05.057Z,96018.00
2023-04-25T09:17:33.264Z,96016.13
2023-04-25T09:20:09.613Z,96030.34
2023-04-25T09:22:38.505Z,96026.84
2023-04-25T09:25:11.453Z,96032.78
2023-04-25T09:27:51.569Z,96046.72
2023-04-25T09:30:19.500Z,96045.19
2023-04-25T09:32:47.372Z,96040.34
2023-04-25T09:35:25.942Z,96040.09
2023-04-25T09:37:53.866Z,96035.78
2023-04-25T09:40:23.259Z,96048.84
2023-04-25T09:42:51.454Z,96041.19
2023-04-25T09:45:19.308Z,96033.66
2023-04-25T09:47:47.172Z,96040.94
2023-04-25T09:50:20.128Z,96054.53
2023-04-25T09:52:47.981Z,96053.03
2023-04-25T09:55:17.040Z,96045.75
2023-04-25T09:57:51.620Z,96069.00
2023-04-25T10:00:22.336Z,96063.03
2023-04-25T10:02:53.206Z,96062.03
2023-04-25T10:05:21.222Z,96062.88
2023-04-25T10:07:49.120Z,96063.19
2023-04-25T10:10:17.701Z,96059.38
2023-04-25T10:12:47.699Z,96064.75
2023-04-25T10:15:17.174Z,96066.81
2023-04-25T10:17:45.921Z,96068.41
2023-04-25T10:20:14.113Z,96079.00
2023-04-25T10:22:44.801Z,96083.22
2023-04-25T10:25:14.468Z,96071.34
2023-04-25T10:27:42.494Z,96071.41
2023-04-25T10:30:16.784Z,96074.91
2023-04-25T10:32:46.373Z,96066.84
2023-04-25T10:35:17.607Z,96078.78
2023-04-25T10:38:01.972Z,96068.44
2023-04-25T10:40:30.234Z,96051.31
2023-04-25T10:43:18.342Z,96069.81
2023-04-25T10:45:56.848Z,96073.56
2023-04-25T10:48:28.568Z,96084.06
2023-04-25T10:51:10.489Z,96075.56
2023-04-25T10:53:38.955Z,96096.63
2023-04-25T10:56:14.381Z,96086.72
2023-04-25T10:58:45.886Z,96086.72
2023-04-25T11:01:16.955Z,96096.81
2023-04-25T11:03:48.639Z,96083.25
2023-04-25T11:06:25.218Z,96092.81
2023-04-25T11:08:53.907Z,96095.66
2023-04-25T11:11:22.193Z,96080.63
2023-04-25T11:13:51.214Z,96096.47
2023-04-25T11:16:27.490Z,96086.72
2023-04-25T11:18:59.601Z,96091.91
2023-04-25T11:21:28.749Z,96081.31
2023-04-25T11:23:58.392Z,96074.22
2023-04-25T11:26:27.149Z,96081.38
2023-04-25T11:28:59.534Z,96074.38
2023-04-25T11:31:28.983Z,96077.88
2023-04-25T11:33:59.419Z,96068.38
2023-04-25T11:36:28.683Z,96084.97
2023-04-25T11:38:56.623Z,96071.13
2023-04-25T11:41:24.443Z,96085.16
2023-04-25T11:43:55.617Z,96079.31
2023-04-25T11:46:24.394Z,96095.84
2023-04-25T11:48:53.949Z,96074.47
2023-04-25T11:51:21.945Z,96074.59
2023-04-25T11:53:49.916Z,96071.66
2023-04-25T11:56:18.061Z,96066.56
2023-04-25T11:59:00.139Z,96050.50
2023-04-25T12:01:31.840Z,96069.81
2023-04-25T12:04:14.984Z,96065.63
2023-04-25T12:06:44.573Z,96070.63
2023-04-25T12:09:14.528Z,96076.38
2023-04-25T12:11:45.911Z,96088.38
2023-04-25T12:14:13.942Z,96077.38
2023-04-25T12:16:45.837Z,96082.63
2023-04-25T12:19:17.556Z,96090.66
2023-04-25T12:21:57.220Z,96091.91
2023-04-25T12:24:28.375Z,96101.72
2023-04-25T12:27:06.639Z,96102.00
2023-04-25T12:32:07.851Z,96134.75
2023-04-25T12:34:37.168Z,96125.91
2023-04-25T12:37:05.027Z,96132.81
2023-04-25T12:39:32.810Z,96132.91
2023-04-25T12:42:00.784Z,96144.59
2023-04-25T12:44:28.676Z,96115.50
2023-04-25T12:46:56.878Z,96139.63
2023-04-25T12:49:24.658Z,96127.97
2023-04-25T12:51:53.806Z,96128.22
2023-04-25T12:54:21.691Z,96124.81
2023-04-25T12:56:49.623Z,96114.66
2023-04-25T12:59:17.439Z,96131.31
2023-04-25T13:01:46.614Z,96120.13
2023-04-25T13:04:14.686Z,96113.94
2023-04-25T13:06:42.658Z,96106.97
2023-04-25T13:09:13.893Z,96122.28
2023-04-25T13:11:42.311Z,96115.13
2023-04-25T13:14:10.125Z,96124.94
2023-04-25T13:16:38.051Z,96131.16
2023-04-25T13:19:06.550Z,96131.50
2023-04-25T13:21:34.375Z,96122.28
2023-04-25T13:24:02.100Z,96124.88
2023-04-25T13:26:31.267Z,96120.56
2023-04-25T13:28:59.034Z,96117.72
2023-04-25T13:31:27.150Z,96110.19
2023-04-25T13:33:55.057Z,96120.19
2023-04-25T13:36:22.889Z,96112.47
2023-04-25T13:38:51.453Z,96133.59
2023-04-25T13:41:19.981Z,96119.75
2023-04-25T13:43:50.011Z,96142.63
2023-04-25T13:48:49.724Z,96148.44
2023-04-25T13:51:18.666Z,96150.16
2023-04-25T13:53:47.443Z,96167.59
2023-04-25T13:56:15.246Z,96166.69
2023-04-25T13:58:43.149Z,96157.81
2023-04-25T14:01:12.470Z,96163.00
2023-04-25T14:03:40.367Z,96160.88
2023-04-25T14:06:09.638Z,96165.28
2023-04-25T14:08:37.470Z,96166.88
2023-04-25T14:11:05.282Z,96173.81
2023-04-25T14:13:33.095Z,96177.47
2023-04-25T14:16:01.078Z,96172.75
2023-04-25T14:18:30.157Z,96173.84
2023-04-25T14:20:57.937Z,96172.59
2023-04-25T14:23:25.802Z,96161.63
2023-04-25T14:25:53.601Z,96137.94
2023-04-25T14:28:22.275Z,96157.63
2023-04-25T14:30:50.024Z,96166.63
2023-04-25T14:33:17.818Z,96161.78
2023-04-25T14:35:47.172Z,96152.44
2023-04-25T14:38:15.558Z,96152.53
2023-04-25T14:40:43.551Z,96163.78
2023-04-25T14:43:11.504Z,96161.13
2023-04-25T14:45:39.286Z,96161.41
2023-04-25T14:48:07.776Z,96154.88
2023-04-25T14:50:35.830Z,96164.63
2023-04-25T14:53:04.928Z,96159.34
2023-04-25T14:55:32.784Z,96161.97
2023-04-25T14:58:00.887Z,96151.91
2023-04-25T15:00:29.233Z,96165.38
2023-04-25T15:02:58.205Z,96157.66
2023-04-25T15:05:26.559Z,96162.72
2023-04-25T15:07:54.268Z,96161.78
2023-04-25T15:10:24.811Z,96164.44
2023-04-25T15:12:54.520Z,96163.50
2023-04-25T15:15:26.912Z,96172.38
2023-04-25T15:17:58.744Z,96165.66
2023-04-25T15:20:28.497Z,96170.63
2023-04-25T15:22:56.473Z,96167.03
2023-04-25T15:25:25.797Z,96165.59
2023-04-25T15:27:55.858Z,96176.09
2023-04-25T15:30:23.903Z,96166.03
2023-04-25T15:32:52.502Z,96167.50
2023-04-25T15:35:22.746Z,96169.38
2023-04-25T15:37:51.610Z,96175.03
2023-04-25T15:40:19.758Z,96167.91
2023-04-25T15:42:51.652Z,96168.44
2023-04-25T15:45:20.785Z,96185.44
2023-04-25T15:47:49.037Z,96169.53
2023-04-25T15:50:16.918Z,96182.50
2023-04-25T15:52:44.789Z,96182.19
2023-04-25T15:55:14.381Z,96185.09
2023-04-25T15:57:42.508Z,96195.06
2023-04-25T16:00:15.041Z,96191.06
2023-04-25T16:02:44.281Z,96185.09
2023-04-25T16:05:13.152Z,96181.66
2023-04-25T16:07:42.840Z,96186.41
2023-04-25T16:10:12.148Z,96175.28
2023-04-25T16:12:40.287Z,96183.75
2023-04-25T16:15:09.009Z,96177.13
2023-04-25T16:17:38.314Z,96185.44
2023-04-25T16:20:10.458Z,96189.75
2023-04-25T16:22:39.435Z,96186.44
2023-04-25T16:25:08.089Z,96179.09
2023-04-25T16:27:52.435Z,96163.41
2023-04-25T16:30:28.515Z,96168.31
2023-04-25T16:32:58.307Z,96184.72
2023-04-25T16:35:37.076Z,96184.16
2023-04-25T16:38:26.967Z,96187.47
2023-04-25T16:40:55.145Z,96123.28
2023-04-25T16:43:22.918Z,96200.47
2023-04-25T16:45:50.727Z,96198.75
2023-04-25T16:48:20.842Z,96201.41
2023-04-25T16:50:48.673Z,96198.91
2023-04-25T16:53:17.474Z,96201.69
2023-04-25T16:55:45.640Z,96177.84
2023-04-25T16:58:14.462Z,96190.06
2023-04-25T17:00:42.872Z,96190.78
2023-04-25T17:03:11.005Z,96202.47
2023-04-25T17:05:40.681Z,96211.16
2023-04-25T17:08:08.496Z,96204.06
2023-04-25T17:10:36.424Z,96221.81
2023-04-25T17:13:04.255Z,96223.09
2023-04-25T17:15:34.162Z,96237.78
2023-04-25T17:18:02.395Z,96229.31
2023-04-25T17:20:30.266Z,96229.97
2023-04-25T17:22:59.880Z,96231.56
2023-04-25T17:25:27.769Z,96237.50
2023-04-25T17:27:55.914Z,96235.06
2023-04-25T17:30:24.073Z,96231.59
2023-04-25T17:32:52.404Z,96228.22
2023-04-25T17:35:20.631Z,96243.41
2023-04-25T17:37:51.406Z,96248.06
2023-04-25T17:40:21.471Z,96248.09
2023-04-25T17:42:49.320Z,96243.88
2023-04-25T17:45:17.687Z,96231.47
2023-04-25T17:47:45.673Z,96247.47
2023-04-25T17:50:16.579Z,96262.00
2023-04-25T17:52:48.253Z,96264.09
2023-04-25T17:55:16.174Z,96253.53
2023-04-25T17:57:45.330Z,96245.41
2023-04-25T18:00:14.059Z,96252.38
2023-04-25T18:02:41.968Z,96269.06
2023-04-25T18:05:10.925Z,96284.28
2023-04-25T18:07:39.239Z,96272.53
2023-04-25T18:10:10.147Z,96275.94
2023-04-25T18:12:38.305Z,96280.09
2023-04-25T18:15:09.274Z,96282.06
2023-04-25T18:17:40.393Z,96298.75
2023-04-25T18:20:11.976Z,96298.41
2023-04-25T18:22:40.320Z,96304.78
2023-04-25T18:25:10.185Z,96300.19
2023-04-25T18:27:38.402Z,96321.66
2023-04-25T18:30:10.640Z,96325.66
2023-04-25T18:32:39.195Z,96329.47
2023-04-25T18:35:10.001Z,96310.66
2023-04-25T18:37:40.186Z,96325.53
2023-04-25T18:40:12.908Z,96331.69
2023-04-25T18:42:40.795Z,96323.91
2023-04-25T18:45:11.928Z,96330.38
2023-04-25T18:47:39.846Z,96347.25
2023-04-25T18:50:09.389Z,96354.22
2023-04-25T18:52:37.330Z,96344.06
2023-04-25T18:55:05.856Z,96353.03
2023-04-25T18:57:34.452Z,96352.72
2023-04-25T19:00:05.263Z,96353.88
2023-04-25T19:02:36.998Z,96368.06
2023-04-25T19:05:05.693Z,96358.81
2023-04-25T19:07:33.481Z,96362.19
2023-04-25T19:10:01.337Z,96372.25
2023-04-25T19:12:29.134Z,96375.88
2023-04-25T19:14:57.135Z,96361.31
2023-04-25T19:17:25.330Z,96364.06
2023-04-25T19:19:54.616Z,96361.31
2023-04-25T19:22:22.453Z,96354.88
2023-04-25T19:24:55.681Z,96365.97
2023-04-25T19:27:37.050Z,96376.56
2023-04-25T19:30:08.813Z,96358.25
2023-04-25T19:32:37.072Z,96367.81
2023-04-25T19:35:10.893Z,96378.91
2023-04-25T19:37:41.108Z,96377.06
2023-04-25T19:40:10.252Z,96389.75
2023-04-25T19:42:38.061Z,96381.53
2023-04-25T19:45:06.934Z,96392.69
2023-04-25T19:47:38.494Z,96378.03
2023-04-25T19:50:10.482Z,96387.50
2023-04-25T19:52:38.925Z,96384.63
2023-04-25T19:55:08.169Z,96375.97
2023-04-25T19:57:38.122Z,96397.66
2023-04-25T20:00:10.905Z,96371.97
2023-04-25T20:02:39.503Z,96403.78
2023-04-25T20:05:10.110Z,96398.09
2023-04-25T20:07:37.916Z,96395.06
2023-04-25T20:10:07.983Z,96397.56
2023-04-25T20:12:37.695Z,96403.00
2023-04-25T20:15:06.761Z,96391.97
2023-04-25T20:17:34.771Z,96395.22
2023-04-25T20:20:04.104Z,96386.19
2023-04-25T20:22:36.270Z,96410.25
2023-04-25T20:25:05.486Z,96409.56
2023-04-25T20:27:33.412Z,96404.78
2023-04-25T20:30:04.948Z,96404.03
2023-04-25T20:32:41.053Z,96415.50
2023-04-25T20:35:10.750Z,96435.28
2023-04-25T20:37:39.998Z,96398.91
2023-04-25T20:40:09.838Z,96433.09
2023-04-25T20:42:38.343Z,96441.75
2023-04-25T20:45:12.542Z,96431.88
2023-04-25T20:47:41.426Z,96448.31
2023-04-25T20:50:10.981Z,96442.97
2023-04-25T20:52:40.142Z,96442.16
2023-04-25T20:55:10.875Z,96438.75
2023-04-25T20:57:39.008Z,96443.50
2023-04-25T21:00:15.992Z,96398.59
2023-04-25T21:02:43.873Z,96416.38
2023-04-25T21:05:11.913Z,96455.09
2023-04-25T21:07:41.228Z,96411.91
2023-04-25T21:10:09.667Z,96450.59
2023-04-25T21:12:37.548Z,96441.03
2023-04-25T21:15:05.995Z,96435.53
2023-04-25T21:17:33.996Z,96436.63
2023-04-25T21:20:01.871Z,96440.59
2023-04-25T21:22:29.987Z,96437.94
2023-04-25T21:25:05.931Z,96434.78
2023-04-25T21:27:34.261Z,96423.34
2023-04-25T21:30:02.173Z,96405.22
2023-04-25T21:32:31.341Z,96424.53
2023-04-25T21:34:59.248Z,96435.16
2023-04-25T21:37:27.068Z,96429.03
2023-04-25T21:39:55.753Z,96430.75
2023-04-25T21:42:25.098Z,96414.41
2023-04-25T21:44:52.982Z,96449.56
2023-04-25T21:47:21.124Z,96422.97
2023-04-25T21:49:49.081Z,96439.63
2023-04-25T21:52:16.945Z,96456.63
2023-04-25T21:54:44.765Z,96460.75
2023-04-25T21:57:12.798Z,96449.16
2023-04-25T21:59:42.026Z,96443.47
2023-04-25T22:02:10.506Z,96379.88
2023-04-25T22:04:38.709Z,96427.84
2023-04-25T22:07:06.650Z,96452.84
2023-04-25T22:09:43.842Z,96431.88
2023-04-25T22:12:19.677Z,96448.72
2023-04-25T22:14:49.041Z,96385.22
2023-04-25T22:17:17.882Z,96445.91
2023-04-25T22:19:46.631Z,96455.69
2023-04-25T22:22:14.456Z,96453.91
2023-04-25T22:24:42.442Z,96459.16
2023-04-25T22:27:11.305Z,96428.97
2023-04-25T22:29:39.193Z,96435.34
2023-04-25T22:32:08.825Z,96461.53
2023-04-25T22:34:37.020Z,96427.28
2023-04-25T22:37:04.822Z,96461.06
2023-04-25T22:39:32.585Z,96462.34
2023-04-25T22:42:00.669Z,96473.44
2023-04-25T22:44:28.634Z,96383.91
2023-04-25T22:46:56.529Z,96442.03
2023-04-25T22:49:26.640Z,96460.19
2023-04-25T22:51:56.794Z,96445.09
2023-04-25T22:54:24.740Z,96481.47
2023-04-25T22:56:52.845Z,96445.75
2023-04-25T22:59:21.098Z,96460.22
2023-04-25T23:01:50.025Z,96461.06
2023-04-25T23:04:19.080Z,96465.94
2023-04-25T23:06:48.784Z,96456.94
2023-04-25T23:09:17.023Z,96461.41
2023-04-25T23:11:44.877Z,96458.50
2023-04-25T23:14:13.026Z,96458.50
2023-04-25T23:16:41.763Z,96443.84
2023-04-25T23:19:09.627Z,96469.75
2023-04-25T23:21:37.433Z,96457.13
2023-04-25T23:24:07.291Z,96483.53
2023-04-25T23:26:35.187Z,96478.81
2023-04-25T23:29:02.971Z,96458.59
2023-04-25T23:31:32.309Z,96462.47
2023-04-25T23:34:00.294Z,96456.94
2023-04-25T23:36:28.164Z,96463.50
2023-04-25T23:38:56.366Z,96440.06
2023-04-25T23:41:26.180Z,96476.16
2023-04-25T23:43:53.975Z,96458.16
2023-04-25T23:46:22.065Z,96481.25
2023-04-25T23:48:50.275Z,96483.09
2023-04-25T23:51:18.382Z,96473.28
2023-04-25T23:53:46.207Z,96474.94
2023-04-25T23:56:14.384Z,96477.41
2023-04-25T23:58:43.551Z,96471.28
